sensor_id;sensor_type;location;lat;lon;timestamp;pressure;altitude;pressure_sealevel;temperature;humidity
39487;BME280;25173;50.430;18.926;2023-04-30T00:01:17;98110.91;;;12.56;88.53
39487;BME280;25173;50.430;18.926;2023-04-30T00:04:17;98112.59;;;12.52;88.56
39487;BME280;25173;50.430;18.926;2023-04-30T00:07:18;98110.94;;;12.51;88.75
39487;BME280;25173;50.430;18.926;2023-04-30T00:10:18;98110.13;;;12.50;88.30
39487;BME280;25173;50.430;18.926;2023-04-30T00:13:19;98115.59;;;12.50;87.86
39487;BME280;25173;50.430;18.926;2023-04-30T00:16:19;98116.69;;;12.49;88.11
39487;BME280;25173;50.430;18.926;2023-04-30T00:19:20;98115.59;;;12.50;88.09
39487;BME280;25173;50.430;18.926;2023-04-30T00:22:20;98121.09;;;12.45;87.90
39487;BME280;25173;50.430;18.926;2023-04-30T00:25:21;98115.16;;;12.38;88.08
39487;BME280;25173;50.430;18.926;2023-04-30T00:28:23;98114.88;;;12.39;87.99
39487;BME280;25173;50.430;18.926;2023-04-30T00:31:24;98119.19;;;12.45;87.81
39487;BME280;25173;50.430;18.926;2023-04-30T00:34:24;98115.06;;;12.48;87.41
39487;BME280;25173;50.430;18.926;2023-04-30T00:37:25;98121.53;;;12.57;87.13
39487;BME280;25173;50.430;18.926;2023-04-30T00:40:26;98128.03;;;12.61;86.93
39487;BME280;25173;50.430;18.926;2023-04-30T00:43:26;98131.06;;;12.60;86.31
39487;BME280;25173;50.430;18.926;2023-04-30T00:46:27;98134.31;;;12.62;85.93
39487;BME280;25173;50.430;18.926;2023-04-30T00:49:28;98138.16;;;12.61;86.00
39487;BME280;25173;50.430;18.926;2023-04-30T00:52:29;98137.13;;;12.57;85.65
39487;BME280;25173;50.430;18.926;2023-04-30T00:55:30;98137.94;;;12.57;85.49
39487;BME280;25173;50.430;18.926;2023-04-30T00:58:30;98138.97;;;12.61;85.48
39487;BME280;25173;50.430;18.926;2023-04-30T01:01:31;98142.25;;;12.63;85.59
39487;BME280;25173;50.430;18.926;2023-04-30T01:04:32;98136.84;;;12.58;85.64
39487;BME280;25173;50.430;18.926;2023-04-30T01:07:34;98130.00;;;12.56;85.33
39487;BME280;25173;50.430;18.926;2023-04-30T01:10:40;98141.75;;;12.56;85.33
39487;BME280;25173;50.430;18.926;2023-04-30T01:17:16;98145.59;;;12.55;85.58
39487;BME280;25173;50.430;18.926;2023-04-30T01:20:20;98152.16;;;12.54;85.36
39487;BME280;25173;50.430;18.926;2023-04-30T01:26:57;98153.25;;;12.53;85.89
39487;BME280;25173;50.430;18.926;2023-04-30T01:30:00;98147.31;;;12.46;85.57
39487;BME280;25173;50.430;18.926;2023-04-30T01:33:02;98154.41;;;12.47;85.25
39487;BME280;25173;50.430;18.926;2023-04-30T01:36:59;98148.31;;;12.55;86.11
39487;BME280;25173;50.430;18.926;2023-04-30T01:43:39;98164.91;;;12.64;85.20
39487;BME280;25173;50.430;18.926;2023-04-30T01:46:54;98160.81;;;12.66;84.91
39487;BME280;25173;50.430;18.926;2023-04-30T01:53:01;98167.72;;;12.54;85.04
39487;BME280;25173;50.430;18.926;2023-04-30T01:56:03;98159.31;;;12.45;85.35
39487;BME280;25173;50.430;18.926;2023-04-30T01:59:05;98159.97;;;12.37;85.61
39487;BME280;25173;50.430;18.926;2023-04-30T02:02:07;98170.47;;;12.20;85.39
39487;BME280;25173;50.430;18.926;2023-04-30T02:05:07;98172.81;;;11.97;85.64
39487;BME280;25173;50.430;18.926;2023-04-30T02:08:08;98195.03;;;11.71;85.71
39487;BME280;25173;50.430;18.926;2023-04-30T02:11:09;98189.41;;;11.47;86.11
39487;BME280;25173;50.430;18.926;2023-04-30T02:14:10;98206.41;;;11.23;86.70
39487;BME280;25173;50.430;18.926;2023-04-30T02:17:10;98197.44;;;11.08;87.22
39487;BME280;25173;50.430;18.926;2023-04-30T02:20:11;98207.56;;;10.92;87.20
39487;BME280;25173;50.430;18.926;2023-04-30T02:23:12;98202.69;;;10.74;87.57
39487;BME280;25173;50.430;18.926;2023-04-30T02:26:12;98207.84;;;10.60;87.98
39487;BME280;25173;50.430;18.926;2023-04-30T02:29:13;98215.75;;;10.46;88.11
39487;BME280;25173;50.430;18.926;2023-04-30T02:32:13;98216.56;;;10.42;88.25
39487;BME280;25173;50.430;18.926;2023-04-30T02:35:14;98228.28;;;10.32;88.35
39487;BME280;25173;50.430;18.926;2023-04-30T02:38:15;98225.00;;;10.20;88.73
39487;BME280;25173;50.430;18.926;2023-04-30T02:41:15;98233.63;;;9.97;88.28
39487;BME280;25173;50.430;18.926;2023-04-30T02:44:16;98242.81;;;9.76;88.32
39487;BME280;25173;50.430;18.926;2023-04-30T02:47:16;98250.34;;;9.58;88.07
39487;BME280;25173;50.430;18.926;2023-04-30T02:50:17;98241.03;;;9.44;88.24
39487;BME280;25173;50.430;18.926;2023-04-30T02:53:17;98250.53;;;9.37;88.46
39487;BME280;25173;50.430;18.926;2023-04-30T02:56:18;98248.03;;;9.30;88.47
39487;BME280;25173;50.430;18.926;2023-04-30T02:59:19;98256.72;;;9.27;88.39
39487;BME280;25173;50.430;18.926;2023-04-30T03:02:20;98258.88;;;9.25;88.17
39487;BME280;25173;50.430;18.926;2023-04-30T03:05:22;98259.97;;;9.24;87.96
39487;BME280;25173;50.430;18.926;2023-04-30T03:08:23;98274.63;;;9.23;88.00
39487;BME280;25173;50.430;18.926;2023-04-30T03:11:24;98271.34;;;9.21;87.51
39487;BME280;25173;50.430;18.926;2023-04-30T03:14:24;98276.53;;;9.22;87.61
39487;BME280;25173;50.430;18.926;2023-04-30T03:17:25;98277.34;;;9.23;87.22
39487;BME280;25173;50.430;18.926;2023-04-30T03:20:26;98282.22;;;9.21;87.09
39487;BME280;25173;50.430;18.926;2023-04-30T03:23:27;98283.03;;;9.21;87.20
39487;BME280;25173;50.430;18.926;2023-04-30T03:26:28;98300.16;;;9.22;86.93
39487;BME280;25173;50.430;18.926;2023-04-30T03:29:29;98296.13;;;9.24;86.89
39487;BME280;25173;50.430;18.926;2023-04-30T03:32:29;98298.84;;;9.29;86.33
39487;BME280;25173;50.430;18.926;2023-04-30T03:35:30;98300.25;;;9.32;86.68
39487;BME280;25173;50.430;18.926;2023-04-30T03:38:30;98302.47;;;9.40;86.56
39487;BME280;25173;50.430;18.926;2023-04-30T03:41:31;98304.41;;;9.50;86.47
39487;BME280;25173;50.430;18.926;2023-04-30T03:44:32;98310.72;;;9.55;85.80
39487;BME280;25173;50.430;18.926;2023-04-30T03:47:34;98305.84;;;9.62;85.92
39487;BME280;25173;50.430;18.926;2023-04-30T03:50:35;98311.03;;;9.69;85.75
39487;BME280;25173;50.430;18.926;2023-04-30T03:53:36;98312.69;;;9.75;85.42
39487;BME280;25173;50.430;18.926;2023-04-30T03:56:37;98320.06;;;9.80;85.25
39487;BME280;25173;50.430;18.926;2023-04-30T03:59:39;98325.81;;;9.88;84.99
39487;BME280;25173;50.430;18.926;2023-04-30T04:02:40;98328.28;;;9.90;84.63
39487;BME280;25173;50.430;18.926;2023-04-30T04:05:43;98331.50;;;9.87;84.44
39487;BME280;25173;50.430;18.926;2023-04-30T04:08:44;98331.50;;;9.87;84.57
39487;BME280;25173;50.430;18.926;2023-04-30T04:11:44;98333.72;;;9.90;84.54
39487;BME280;25173;50.430;18.926;2023-04-30T04:14:45;98337.28;;;9.95;84.15
39487;BME280;25173;50.430;18.926;2023-04-30T04:17:47;98346.81;;;10.03;83.82
39487;BME280;25173;50.430;18.926;2023-04-30T04:20:48;98346.03;;;10.07;83.29
39487;BME280;25173;50.430;18.926;2023-04-30T04:23:50;98356.09;;;10.07;82.85
39487;BME280;25173;50.430;18.926;2023-04-30T04:26:50;98357.44;;;10.04;82.74
39487;BME280;25173;50.430;18.926;2023-04-30T04:29:52;98355.00;;;10.08;82.80
39487;BME280;25173;50.430;18.926;2023-04-30T04:32:54;98364.06;;;10.19;82.77
39487;BME280;25173;50.430;18.926;2023-04-30T04:35:54;98354.31;;;10.28;82.60
39487;BME280;25173;50.430;18.926;2023-04-30T04:38:56;98366.31;;;10.37;82.37
39487;BME280;25173;50.430;18.926;2023-04-30T04:42:02;98369.03;;;10.42;82.00
39487;BME280;25173;50.430;18.926;2023-04-30T04:45:05;98368.50;;;10.45;81.88
39487;BME280;25173;50.430;18.926;2023-04-30T04:48:08;98374.78;;;10.50;81.93
39487;BME280;25173;50.430;18.926;2023-04-30T04:51:09;98379.41;;;10.55;81.43
39487;BME280;25173;50.430;18.926;2023-04-30T04:54:09;98390.06;;;10.52;80.92
39487;BME280;25173;50.430;18.926;2023-04-30T04:57:10;98399.56;;;10.49;81.10
39487;BME280;25173;50.430;18.926;2023-04-30T05:00:11;98394.91;;;10.39;80.83
39487;BME280;25173;50.430;18.926;2023-04-30T05:03:12;98401.97;;;10.40;81.07
39487;BME280;25173;50.430;18.926;2023-04-30T05:06:13;98401.72;;;10.42;81.10
39487;BME280;25173;50.430;18.926;2023-04-30T05:09:15;98411.53;;;10.43;80.85
39487;BME280;25173;50.430;18.926;2023-04-30T05:12:16;98427.03;;;10.37;80.75
39487;BME280;25173;50.430;18.926;2023-04-30T05:15:17;98427.56;;;10.34;81.02
39487;BME280;25173;50.430;18.926;2023-04-30T05:18:18;98427.56;;;10.39;81.25
39487;BME280;25173;50.430;18.926;2023-04-30T05:21:19;98445.03;;;10.48;81.45
39487;BME280;25173;50.430;18.926;2023-04-30T05:24:19;98440.16;;;10.56;81.24
39487;BME280;25173;50.430;18.926;2023-04-30T05:27:20;98445.91;;;10.69;81.51
39487;BME280;25173;50.430;18.926;2023-04-30T05:30:21;98450.84;;;10.82;80.75
39487;BME280;25173;50.430;18.926;2023-04-30T05:33:22;98456.34;;;10.93;80.75
39487;BME280;25173;50.430;18.926;2023-04-30T05:36:22;98464.81;;;11.01;80.39
39487;BME280;25173;50.430;18.926;2023-04-30T05:39:23;98465.34;;;10.98;79.55
39487;BME280;25173;50.430;18.926;2023-04-30T05:42:23;98474.59;;;10.97;79.47
39487;BME280;25173;50.430;18.926;2023-04-30T05:45:24;98469.69;;;10.94;79.37
39487;BME280;25173;50.430;18.926;2023-04-30T05:48:24;98475.41;;;10.93;79.35
39487;BME280;25173;50.430;18.926;2023-04-30T05:51:25;98479.47;;;10.90;79.18
39487;BME280;25173;50.430;18.926;2023-04-30T05:54:27;98483.28;;;10.79;78.34
39487;BME280;25173;50.430;18.926;2023-04-30T05:57:28;98481.63;;;10.73;78.71
39487;BME280;25173;50.430;18.926;2023-04-30T06:00:28;98485.69;;;10.70;79.06
39487;BME280;25173;50.430;18.926;2023-04-30T06:03:29;98488.16;;;10.72;79.19
39487;BME280;25173;50.430;18.926;2023-04-30T06:06:30;98483.81;;;10.76;79.09
39487;BME280;25173;50.430;18.926;2023-04-30T06:09:31;98489.25;;;10.76;79.00
39487;BME280;25173;50.430;18.926;2023-04-30T06:12:31;98492.84;;;10.81;79.01
39487;BME280;25173;50.430;18.926;2023-04-30T06:15:32;98493.94;;;10.85;78.59
39487;BME280;25173;50.430;18.926;2023-04-30T06:18:32;98496.34;;;10.82;77.52
39487;BME280;25173;50.430;18.926;2023-04-30T06:21:33;98495.00;;;10.79;77.51
39487;BME280;25173;50.430;18.926;2023-04-30T06:24:34;98500.72;;;10.83;77.48
39487;BME280;25173;50.430;18.926;2023-04-30T06:27:34;98502.66;;;10.87;77.78
39487;BME280;25173;50.430;18.926;2023-04-30T06:30:36;98495.59;;;10.97;77.15
39487;BME280;25173;50.430;18.926;2023-04-30T06:33:36;98502.97;;;11.01;77.24
39487;BME280;25173;50.430;18.926;2023-04-30T06:36:37;98509.25;;;11.07;76.38
39487;BME280;25173;50.430;18.926;2023-04-30T06:39:37;98504.63;;;11.12;75.81
39487;BME280;25173;50.430;18.926;2023-04-30T06:42:38;98510.09;;;11.17;75.13
39487;BME280;25173;50.430;18.926;2023-04-30T06:45:38;98516.94;;;11.25;74.62
39487;BME280;25173;50.430;18.926;2023-04-30T06:48:39;98512.84;;;11.33;74.74
39487;BME280;25173;50.430;18.926;2023-04-30T06:51:40;98508.78;;;11.45;74.14
39487;BME280;25173;50.430;18.926;2023-04-30T06:54:41;98512.91;;;11.63;73.52
39487;BME280;25173;50.430;18.926;2023-04-30T06:57:43;98522.44;;;11.71;71.20
39487;BME280;25173;50.430;18.926;2023-04-30T07:00:43;98516.19;;;11.85;71.41
39487;BME280;25173;50.430;18.926;2023-04-30T07:03:44;98514.28;;;12.06;71.11
39487;BME280;25173;50.430;18.926;2023-04-30T07:06:44;98512.88;;;12.29;71.20
39487;BME280;25173;50.430;18.926;2023-04-30T07:09:45;98515.56;;;12.39;68.95
39487;BME280;25173;50.430;18.926;2023-04-30T07:12:46;98514.72;;;12.38;68.65
39487;BME280;25173;50.430;18.926;2023-04-30T07:15:46;98516.66;;;12.38;68.58
39487;BME280;25173;50.430;18.926;2023-04-30T07:18:47;98512.00;;;12.49;68.28
39487;BME280;25173;50.430;18.926;2023-04-30T07:21:48;98503.78;;;12.49;67.59
39487;BME280;25173;50.430;18.926;2023-04-30T07:24:48;98507.63;;;12.48;66.90
39487;BME280;25173;50.430;18.926;2023-04-30T07:27:50;98502.66;;;12.55;67.31
39487;BME280;25173;50.430;18.926;2023-04-30T07:30:52;98507.78;;;12.76;68.56
39487;BME280;25173;50.430;18.926;2023-04-30T07:33:52;98512.34;;;12.96;66.69
39487;BME280;25173;50.430;18.926;2023-04-30T07:36:54;98522.94;;;13.13;65.88
39487;BME280;25173;50.430;18.926;2023-04-30T07:39:55;98518.28;;;13.13;61.46
39487;BME280;25173;50.430;18.926;2023-04-30T07:42:56;98527.88;;;13.06;60.51
39487;BME280;25173;50.430;18.926;2023-04-30T07:45:56;98520.25;;;13.03;60.71
39487;BME280;25173;50.430;18.926;2023-04-30T07:48:57;98530.06;;;13.14;61.90
39487;BME280;25173;50.430;18.926;2023-04-30T07:51:58;98533.88;;;13.08;59.09
39487;BME280;25173;50.430;18.926;2023-04-30T07:55:00;98536.91;;;13.11;59.03
39487;BME280;25173;50.430;18.926;2023-04-30T07:58:00;98538.22;;;13.24;59.13
39487;BME280;25173;50.430;18.926;2023-04-30T08:01:03;98544.97;;;13.37;59.13
39487;BME280;25173;50.430;18.926;2023-04-30T08:04:03;98535.28;;;13.54;58.82
39487;BME280;25173;50.430;18.926;2023-04-30T08:07:04;98540.94;;;13.68;57.52
39487;BME280;25173;50.430;18.926;2023-04-30T08:10:05;98553.59;;;13.59;56.51
39487;BME280;25173;50.430;18.926;2023-04-30T08:13:05;98546.75;;;13.62;56.68
39487;BME280;25173;50.430;18.926;2023-04-30T08:16:06;98557.16;;;13.59;56.30
39487;BME280;25173;50.430;18.926;2023-04-30T08:19:07;98558.88;;;13.45;55.56
39487;BME280;25173;50.430;18.926;2023-04-30T08:22:07;98555.00;;;13.51;56.28
39487;BME280;25173;50.430;18.926;2023-04-30T08:25:10;98564.81;;;13.57;55.57
39487;BME280;25173;50.430;18.926;2023-04-30T08:28:11;98559.88;;;13.59;55.40
39487;BME280;25173;50.430;18.926;2023-04-30T08:31:12;98562.72;;;13.83;55.89
39487;BME280;25173;50.430;18.926;2023-04-30T08:34:13;98563.44;;;13.94;54.07
39487;BME280;25173;50.430;18.926;2023-04-30T08:37:13;98555.16;;;14.04;55.26
39487;BME280;25173;50.430;18.926;2023-04-30T08:40:15;98558.34;;;14.16;54.88
39487;BME280;25173;50.430;18.926;2023-04-30T08:43:16;98560.25;;;14.16;53.54
39487;BME280;25173;50.430;18.926;2023-04-30T08:46:19;98557.03;;;14.09;52.73
39487;BME280;25173;50.430;18.926;2023-04-30T08:49:21;98570.06;;;13.93;52.69
39487;BME280;25173;50.430;18.926;2023-04-30T08:52:22;98563.88;;;13.77;51.94
39487;BME280;25173;50.430;18.926;2023-04-30T08:55:26;98561.38;;;13.81;52.68
39487;BME280;25173;50.430;18.926;2023-04-30T08:58:26;98572.25;;;13.91;52.99
39487;BME280;25173;50.430;18.926;2023-04-30T09:01:28;98560.66;;;14.04;52.46
39487;BME280;25173;50.430;18.926;2023-04-30T09:04:29;98573.09;;;14.20;53.19
39487;BME280;25173;50.430;18.926;2023-04-30T09:07:32;98564.63;;;14.51;53.43
39487;BME280;25173;50.430;18.926;2023-04-30T09:10:33;98586.91;;;14.68;52.05
39487;BME280;25173;50.430;18.926;2023-04-30T09:13:40;98591.69;;;14.57;50.71
39487;BME280;25173;50.430;18.926;2023-04-30T09:16:50;98588.31;;;14.36;49.52
39487;BME280;25173;50.430;18.926;2023-04-30T09:19:52;98582.00;;;14.36;52.10
39487;BME280;25173;50.430;18.926;2023-04-30T09:23:06;98580.91;;;14.37;48.60
39487;BME280;25173;50.430;18.926;2023-04-30T09:26:07;98583.91;;;14.41;50.38
39487;BME280;25173;50.430;18.926;2023-04-30T09:29:08;98581.69;;;14.43;49.73
39487;BME280;25173;50.430;18.926;2023-04-30T09:32:09;98580.59;;;14.44;49.51
39487;BME280;25173;50.430;18.926;2023-04-30T09:35:31;98593.84;;;14.60;47.72
39487;BME280;25173;50.430;18.926;2023-04-30T09:38:32;98592.59;;;14.48;47.15
39487;BME280;25173;50.430;18.926;2023-04-30T09:41:32;98596.28;;;14.33;47.66
39487;BME280;25173;50.430;18.926;2023-04-30T09:44:39;98585.00;;;14.40;48.90
39487;BME280;25173;50.430;18.926;2023-04-30T09:47:40;98585.97;;;14.54;47.32
39487;BME280;25173;50.430;18.926;2023-04-30T09:50:41;98584.16;;;14.68;48.43
39487;BME280;25173;50.430;18.926;2023-04-30T09:53:42;98587.28;;;14.85;48.20
39487;BME280;25173;50.430;18.926;2023-04-30T09:56:43;98583.38;;;14.91;48.62
39487;BME280;25173;50.430;18.926;2023-04-30T09:59:45;98586.28;;;15.00;48.14
39487;BME280;25173;50.430;18.926;2023-04-30T10:02:46;98573.28;;;15.10;47.88
39487;BME280;25173;50.430;18.926;2023-04-30T10:05:47;98575.09;;;15.39;48.28
39487;BME280;25173;50.430;18.926;2023-04-30T10:08:55;98599.72;;;15.44;47.08
39487;BME280;25173;50.430;18.926;2023-04-30T10:11:56;98575.91;;;15.39;47.50
39487;BME280;25173;50.430;18.926;2023-04-30T10:15:04;98581.03;;;15.46;47.51
39487;BME280;25173;50.430;18.926;2023-04-30T10:18:10;98572.88;;;15.41;46.80
39487;BME280;25173;50.430;18.926;2023-04-30T10:21:15;98579.97;;;15.42;46.81
39487;BME280;25173;50.430;18.926;2023-04-30T10:24:18;98570.63;;;15.43;47.52
39487;BME280;25173;50.430;18.926;2023-04-30T10:27:20;98569.97;;;15.56;47.03
39487;BME280;25173;50.430;18.926;2023-04-30T10:30:21;98575.16;;;15.76;47.30
39487;BME280;25173;50.430;18.926;2023-04-30T10:36:53;98580.19;;;15.88;46.78
39487;BME280;25173;50.430;18.926;2023-04-30T10:39:56;98583.22;;;15.86;45.05
39487;BME280;25173;50.430;18.926;2023-04-30T10:42:57;98575.16;;;15.76;44.47
39487;BME280;25173;50.430;18.926;2023-04-30T10:45:58;98572.81;;;15.65;44.11
39487;BME280;25173;50.430;18.926;2023-04-30T10:48:59;98559.19;;;15.60;44.16
39487;BME280;25173;50.430;18.926;2023-04-30T10:52:02;98555.91;;;15.58;45.06
39487;BME280;25173;50.430;18.926;2023-04-30T10:55:09;98571.19;;;15.64;44.06
39487;BME280;25173;50.430;18.926;2023-04-30T10:58:25;98553.78;;;15.55;43.02
39487;BME280;25173;50.430;18.926;2023-04-30T11:01:27;98551.88;;;15.50;43.71
39487;BME280;25173;50.430;18.926;2023-04-30T11:04:28;98558.38;;;15.59;45.32
39487;BME280;25173;50.430;18.926;2023-04-30T11:07:28;98555.03;;;15.62;45.60
39487;BME280;25173;50.430;18.926;2023-04-30T11:10:33;98552.75;;;15.69;44.89
39487;BME280;25173;50.430;18.926;2023-04-30T11:13:44;98550.38;;;15.63;43.67
39487;BME280;25173;50.430;18.926;2023-04-30T11:16:48;98549.81;;;15.79;45.44
39487;BME280;25173;50.430;18.926;2023-04-30T11:19:51;98548.22;;;16.11;45.21
39487;BME280;25173;50.430;18.926;2023-04-30T11:23:09;98556.72;;;16.28;41.42
39487;BME280;25173;50.430;18.926;2023-04-30T11:26:10;98554.84;;;16.23;43.31
39487;BME280;25173;50.430;18.926;2023-04-30T11:29:11;98563.47;;;16.36;43.51
39487;BME280;25173;50.430;18.926;2023-04-30T11:32:12;98554.41;;;16.35;41.88
39487;BME280;25173;50.430;18.926;2023-04-30T11:35:16;98564.34;;;16.31;41.13
39487;BME280;25173;50.430;18.926;2023-04-30T11:38:36;98558.56;;;16.33;40.50
39487;BME280;25173;50.430;18.926;2023-04-30T11:41:41;98560.22;;;16.47;42.47
39487;BME280;25173;50.430;18.926;2023-04-30T11:44:42;98560.78;;;16.77;43.23
39487;BME280;25173;50.430;18.926;2023-04-30T11:47:50;98553.97;;;17.01;41.04
39487;BME280;25173;50.430;18.926;2023-04-30T11:50:51;98560.81;;;17.04;41.63
39487;BME280;25173;50.430;18.926;2023-04-30T11:53:52;98554.09;;;17.10;41.17
39487;BME280;25173;50.430;18.926;2023-04-30T11:56:53;98561.00;;;17.21;41.86
39487;BME280;25173;50.430;18.926;2023-04-30T11:59:53;98566.25;;;17.45;41.69
39487;BME280;25173;50.430;18.926;2023-04-30T12:02:54;98573.09;;;17.61;41.04
39487;BME280;25173;50.430;18.926;2023-04-30T12:05:55;98560.19;;;17.57;40.81
39487;BME280;25173;50.430;18.926;2023-04-30T12:08:58;98562.34;;;17.73;40.32
39487;BME280;25173;50.430;18.926;2023-04-30T12:12:00;98567.97;;;17.55;39.61
39487;BME280;25173;50.430;18.926;2023-04-30T12:15:13;98567.88;;;17.60;38.82
39487;BME280;25173;50.430;18.926;2023-04-30T12:18:14;98566.38;;;17.90;41.27
39487;BME280;25173;50.430;18.926;2023-04-30T12:21:15;98566.19;;;18.08;39.89
39487;BME280;25173;50.430;18.926;2023-04-30T12:24:17;98566.06;;;18.13;39.95
39487;BME280;25173;50.430;18.926;2023-04-30T12:27:18;98564.38;;;18.26;39.92
39487;BME280;25173;50.430;18.926;2023-04-30T12:30:20;98568.31;;;18.11;38.40
39487;BME280;25173;50.430;18.926;2023-04-30T12:33:21;98563.09;;;17.88;38.31
39487;BME280;25173;50.430;18.926;2023-04-30T12:36:28;98550.06;;;17.79;38.38
39487;BME280;25173;50.430;18.926;2023-04-30T12:39:32;98547.81;;;18.26;40.23
39487;BME280;25173;50.430;18.926;2023-04-30T12:42:34;98537.97;;;18.95;39.41
39487;BME280;25173;50.430;18.926;2023-04-30T12:46:01;98539.47;;;19.02;36.18
39487;BME280;25173;50.430;18.926;2023-04-30T12:49:02;98540.97;;;18.77;38.45
39487;BME280;25173;50.430;18.926;2023-04-30T12:52:10;98544.19;;;18.70;38.31
39487;BME280;25173;50.430;18.926;2023-04-30T12:55:18;98543.22;;;18.66;38.54
39487;BME280;25173;50.430;18.926;2023-04-30T12:58:20;98539.44;;;18.62;37.92
39487;BME280;25173;50.430;18.926;2023-04-30T13:01:22;98541.53;;;18.87;38.38
39487;BME280;25173;50.430;18.926;2023-04-30T13:04:23;98536.00;;;18.87;37.17
39487;BME280;25173;50.430;18.926;2023-04-30T13:07:24;98529.47;;;18.83;38.19
39487;BME280;25173;50.430;18.926;2023-04-30T13:10:25;98521.94;;;19.06;37.85
39487;BME280;25173;50.430;18.926;2023-04-30T13:13:25;98536.38;;;19.03;37.63
39487;BME280;25173;50.430;18.926;2023-04-30T13:16:26;98542.19;;;18.93;36.65
39487;BME280;25173;50.430;18.926;2023-04-30T13:19:27;98541.84;;;18.86;36.66
39487;BME280;25173;50.430;18.926;2023-04-30T13:22:29;98535.84;;;18.92;37.05
39487;BME280;25173;50.430;18.926;2023-04-30T13:25:33;98547.28;;;19.08;36.64
39487;BME280;25173;50.430;18.926;2023-04-30T13:28:34;98537.53;;;19.19;36.69
39487;BME280;25173;50.430;18.926;2023-04-30T13:31:35;98532.38;;;19.35;35.82
39487;BME280;25173;50.430;18.926;2023-04-30T13:34:36;98531.44;;;19.39;35.76
39487;BME280;25173;50.430;18.926;2023-04-30T13:37:37;98522.78;;;19.24;35.44
39487;BME280;25173;50.430;18.926;2023-04-30T13:40:38;98520.63;;;19.12;35.77
39487;BME280;25173;50.430;18.926;2023-04-30T13:43:39;98522.34;;;19.39;36.32
39487;BME280;25173;50.430;18.926;2023-04-30T13:46:41;98525.41;;;19.37;35.04
39487;BME280;25173;50.430;18.926;2023-04-30T13:49:42;98540.69;;;19.26;34.39
39487;BME280;25173;50.430;18.926;2023-04-30T13:52:42;98529.63;;;19.26;34.68
39487;BME280;25173;50.430;18.926;2023-04-30T13:55:43;98527.91;;;19.48;35.57
39487;BME280;25173;50.430;18.926;2023-04-30T13:58:44;98531.44;;;20.08;36.34
39487;BME280;25173;50.430;18.926;2023-04-30T14:01:45;98527.69;;;20.39;35.46
39487;BME280;25173;50.430;18.926;2023-04-30T14:04:46;98529.25;;;20.66;36.16
39487;BME280;25173;50.430;18.926;2023-04-30T14:07:46;98536.22;;;20.72;34.82
39487;BME280;25173;50.430;18.926;2023-04-30T14:10:47;98532.72;;;20.45;34.67
39487;BME280;25173;50.430;18.926;2023-04-30T14:13:48;98541.38;;;20.18;33.58
39487;BME280;25173;50.430;18.926;2023-04-30T14:16:48;98537.66;;;19.97;34.22
39487;BME280;25173;50.430;18.926;2023-04-30T14:19:49;98521.00;;;20.48;35.05
39487;BME280;25173;50.430;18.926;2023-04-30T14:22:49;98534.38;;;21.22;34.21
39487;BME280;25173;50.430;18.926;2023-04-30T14:25:50;98535.91;;;21.11;33.55
39487;BME280;25173;50.430;18.926;2023-04-30T14:28:50;98541.06;;;20.83;32.67
39487;BME280;25173;50.430;18.926;2023-04-30T14:31:51;98538.91;;;20.25;32.67
39487;BME280;25173;50.430;18.926;2023-04-30T14:34:52;98545.78;;;20.10;33.63
39487;BME280;25173;50.430;18.926;2023-04-30T14:37:52;98538.94;;;20.34;34.78
39487;BME280;25173;50.430;18.926;2023-04-30T14:40:53;98533.50;;;20.63;33.84
39487;BME280;25173;50.430;18.926;2023-04-30T14:43:54;98531.00;;;20.79;33.59
39487;BME280;25173;50.430;18.926;2023-04-30T14:46:54;98542.53;;;20.89;32.58
39487;BME280;25173;50.430;18.926;2023-04-30T14:49:55;98543.06;;;20.74;32.52
39487;BME280;25173;50.430;18.926;2023-04-30T14:52:58;98544.72;;;20.67;32.94
39487;BME280;25173;50.430;18.926;2023-04-30T14:55:58;98544.44;;;20.51;31.99
39487;BME280;25173;50.430;18.926;2023-04-30T14:58:59;98533.28;;;20.68;32.93
39487;BME280;25173;50.430;18.926;2023-04-30T15:01:59;98536.56;;;21.08;32.46
39487;BME280;25173;50.430;18.926;2023-04-30T15:05:01;98540.47;;;21.07;32.25
39487;BME280;25173;50.430;18.926;2023-04-30T15:08:03;98534.63;;;21.00;31.44
39487;BME280;25173;50.430;18.926;2023-04-30T15:11:04;98538.25;;;20.92;31.28
39487;BME280;25173;50.430;18.926;2023-04-30T15:14:06;98533.81;;;21.38;32.18
39487;BME280;25173;50.430;18.926;2023-04-30T15:17:06;98541.81;;;21.81;32.36
39487;BME280;25173;50.430;18.926;2023-04-30T15:20:07;98540.81;;;22.06;31.31
39487;BME280;25173;50.430;18.926;2023-04-30T15:23:08;98547.28;;;21.89;30.61
39487;BME280;25173;50.430;18.926;2023-04-30T15:26:09;98546.75;;;21.75;30.36
39487;BME280;25173;50.430;18.926;2023-04-30T15:29:10;98548.97;;;21.82;29.86
39487;BME280;25173;50.430;18.926;2023-04-30T15:32:11;98540.56;;;21.99;29.76
39487;BME280;25173;50.430;18.926;2023-04-30T15:35:12;98548.13;;;22.43;30.23
39487;BME280;25173;50.430;18.926;2023-04-30T15:38:13;98539.56;;;22.81;29.91
39487;BME280;25173;50.430;18.926;2023-04-30T15:41:14;98538.97;;;23.12;28.63
39487;BME280;25173;50.430;18.926;2023-04-30T15:44:14;98546.50;;;22.88;28.08
39487;BME280;25173;50.430;18.926;2023-04-30T15:47:15;98544.22;;;22.69;28.28
39487;BME280;25173;50.430;18.926;2023-04-30T15:50:15;98546.84;;;22.86;29.17
39487;BME280;25173;50.430;18.926;2023-04-30T15:53:16;98541.72;;;22.76;28.67
39487;BME280;25173;50.430;18.926;2023-04-30T15:56:17;98545.31;;;22.76;28.88
39487;BME280;25173;50.430;18.926;2023-04-30T15:59:18;98552.41;;;22.98;29.10
39487;BME280;25173;50.430;18.926;2023-04-30T16:02:19;98557.63;;;22.88;27.69
39487;BME280;25173;50.430;18.926;2023-04-30T16:05:21;98549.38;;;22.46;27.90
39487;BME280;25173;50.430;18.926;2023-04-30T16:08:21;98540.41;;;22.61;28.29